Wild Rice, North Dakota
Current Conditions -  °F | °C
As of 11:51 AM on Monday 24 Nov 2014 (Local Time) from KJKJ Reporting Station
Overcast Overcast  
Wind Chill: -13°   Ceiling: 2300
Heat Index:   Visibility: 7mi
Dew Point:   Wind: 26mph
Humidity: 92%   Direction: 350°N
Pressure: 29.75"   Gusts: 32mph
Location:  46.7039°N, 96.8572°W
Report Text: KJKJ 241751Z AUTO 35023G28KT 7SM SCT010 OVC023 M13/M14 A2975 RMK AO2
Loading
Personal Weather Stations






























Interactive Weather Map New forecast layout! Learn more

10-Day Weather Forecast

Advertisements
Track Severe Weather on mobile